sensor_id;sensor_type;location;lat;lon;timestamp;P1;durP1;ratioP1;P2;durP2;ratioP2
65377;SDS011;51982;51.042;13.806;2023-04-03T00:05:05;0.93;;;0.50;;
65377;SDS011;51982;51.042;13.806;2023-04-03T00:07:34;2.42;;;0.98;;
65377;SDS011;51982;51.042;13.806;2023-04-03T00:10:12;4.75;;;0.80;;
65377;SDS011;51982;51.042;13.806;2023-04-03T00:12:58;3.25;;;1.02;;
65377;SDS011;51982;51.042;13.806;2023-04-03T00:39:08;1.85;;;0.90;;
65377;SDS011;51982;51.042;13.806;2023-04-03T00:59:48;2.50;;;0.68;;
65377;SDS011;51982;51.042;13.806;2023-04-03T01:06:09;2.58;;;0.80;;
65377;SDS011;51982;51.042;13.806;2023-04-03T01:25:41;3.80;;;1.10;;
65377;SDS011;51982;51.042;13.806;2023-04-03T01:39:18;2.97;;;1.13;;
65377;SDS011;51982;51.042;13.806;2023-04-03T01:48:38;2.17;;;1.00;;
65377;SDS011;51982;51.042;13.806;2023-04-03T01:51:19;2.30;;;1.02;;
65377;SDS011;51982;51.042;13.806;2023-04-03T01:57:25;2.35;;;0.68;;
65377;SDS011;51982;51.042;13.806;2023-04-03T02:10:26;5.45;;;1.08;;
65377;SDS011;51982;51.042;13.806;2023-04-03T02:13:03;4.03;;;1.02;;
65377;SDS011;51982;51.042;13.806;2023-04-03T02:26:38;4.78;;;1.15;;
65377;SDS011;51982;51.042;13.806;2023-04-03T02:36:41;2.70;;;1.00;;
65377;SDS011;51982;51.042;13.806;2023-04-03T02:39:16;4.47;;;1.20;;
65377;SDS011;51982;51.042;13.806;2023-04-03T02:42:05;3.17;;;0.95;;
65377;SDS011;51982;51.042;13.806;2023-04-03T02:44:33;2.10;;;0.90;;
65377;SDS011;51982;51.042;13.806;2023-04-03T02:47:15;2.83;;;1.10;;
65377;SDS011;51982;51.042;13.806;2023-04-03T02:49:45;3.13;;;1.00;;
65377;SDS011;51982;51.042;13.806;2023-04-03T02:59:06;3.38;;;1.00;;
65377;SDS011;51982;51.042;13.806;2023-04-03T03:01:53;2.38;;;0.88;;
65377;SDS011;51982;51.042;13.806;2023-04-03T03:04:45;2.58;;;1.05;;
65377;SDS011;51982;51.042;13.806;2023-04-03T03:35:54;1.63;;;0.73;;
65377;SDS011;51982;51.042;13.806;2023-04-03T03:42:47;2.47;;;1.00;;
65377;SDS011;51982;51.042;13.806;2023-04-03T03:46:13;3.53;;;1.10;;
65377;SDS011;51982;51.042;13.806;2023-04-03T03:49:53;2.22;;;1.02;;
65377;SDS011;51982;51.042;13.806;2023-04-03T04:07:12;3.22;;;0.95;;
65377;SDS011;51982;51.042;13.806;2023-04-03T04:10:00;0.90;;;0.40;;
65377;SDS011;51982;51.042;13.806;2023-04-03T04:37:46;5.10;;;1.13;;
65377;SDS011;51982;51.042;13.806;2023-04-03T04:43:49;4.18;;;1.10;;
65377;SDS011;51982;51.042;13.806;2023-04-03T04:49:45;1.92;;;0.93;;
65377;SDS011;51982;51.042;13.806;2023-04-03T04:52:51;4.22;;;1.08;;
65377;SDS011;51982;51.042;13.806;2023-04-03T05:24:29;7.75;;;1.42;;
65377;SDS011;51982;51.042;13.806;2023-04-03T05:31:26;3.90;;;1.20;;
65377;SDS011;51982;51.042;13.806;2023-04-03T05:38:14;4.97;;;1.60;;
65377;SDS011;51982;51.042;13.806;2023-04-03T05:48:55;4.30;;;1.20;;
65377;SDS011;51982;51.042;13.806;2023-04-03T05:54:29;2.45;;;1.20;;
65377;SDS011;51982;51.042;13.806;2023-04-03T06:01:12;4.75;;;1.48;;
65377;SDS011;51982;51.042;13.806;2023-04-03T06:03:37;4.05;;;0.90;;
65377;SDS011;51982;51.042;13.806;2023-04-03T06:06:13;4.65;;;1.40;;
65377;SDS011;51982;51.042;13.806;2023-04-03T06:08:55;7.28;;;1.27;;
65377;SDS011;51982;51.042;13.806;2023-04-03T06:11:32;1.75;;;0.88;;
65377;SDS011;51982;51.042;13.806;2023-04-03T06:14:00;3.97;;;1.13;;
65377;SDS011;51982;51.042;13.806;2023-04-03T06:16:26;5.68;;;1.75;;
65377;SDS011;51982;51.042;13.806;2023-04-03T06:18:51;6.47;;;1.35;;
65377;SDS011;51982;51.042;13.806;2023-04-03T06:21:16;3.08;;;1.08;;
65377;SDS011;51982;51.042;13.806;2023-04-03T06:23:41;0.93;;;0.57;;
65377;SDS011;51982;51.042;13.806;2023-04-03T06:26:06;3.53;;;1.40;;
65377;SDS011;51982;51.042;13.806;2023-04-03T06:28:32;1.70;;;1.17;;
65377;SDS011;51982;51.042;13.806;2023-04-03T06:30:57;3.65;;;1.25;;
65377;SDS011;51982;51.042;13.806;2023-04-03T06:33:22;5.60;;;1.35;;
65377;SDS011;51982;51.042;13.806;2023-04-03T06:35:47;3.92;;;1.25;;
65377;SDS011;51982;51.042;13.806;2023-04-03T06:38:13;3.95;;;1.33;;
65377;SDS011;51982;51.042;13.806;2023-04-03T06:40:38;2.25;;;0.90;;
65377;SDS011;51982;51.042;13.806;2023-04-03T06:43:03;2.55;;;1.25;;
65377;SDS011;51982;51.042;13.806;2023-04-03T06:45:30;4.22;;;1.30;;
65377;SDS011;51982;51.042;13.806;2023-04-03T06:47:55;4.20;;;1.17;;
65377;SDS011;51982;51.042;13.806;2023-04-03T06:50:20;8.20;;;1.52;;
65377;SDS011;51982;51.042;13.806;2023-04-03T06:52:46;1.92;;;0.68;;
65377;SDS011;51982;51.042;13.806;2023-04-03T06:55:11;6.97;;;1.58;;
65377;SDS011;51982;51.042;13.806;2023-04-03T06:57:36;2.55;;;1.02;;
65377;SDS011;51982;51.042;13.806;2023-04-03T07:00:02;3.22;;;1.10;;
65377;SDS011;51982;51.042;13.806;2023-04-03T07:02:29;2.40;;;0.95;;
65377;SDS011;51982;51.042;13.806;2023-04-03T07:04:54;4.15;;;1.10;;
65377;SDS011;51982;51.042;13.806;2023-04-03T07:07:19;2.47;;;1.17;;
65377;SDS011;51982;51.042;13.806;2023-04-03T07:09:45;4.78;;;1.60;;
65377;SDS011;51982;51.042;13.806;2023-04-03T07:12:12;4.35;;;1.25;;
65377;SDS011;51982;51.042;13.806;2023-04-03T07:14:38;3.53;;;1.25;;
65377;SDS011;51982;51.042;13.806;2023-04-03T07:17:03;12.02;;;1.70;;
65377;SDS011;51982;51.042;13.806;2023-04-03T07:19:28;3.45;;;1.20;;
65377;SDS011;51982;51.042;13.806;2023-04-03T07:21:53;2.70;;;0.90;;
65377;SDS011;51982;51.042;13.806;2023-04-03T07:24:19;4.93;;;1.50;;
65377;SDS011;51982;51.042;13.806;2023-04-03T07:26:48;3.47;;;1.70;;
65377;SDS011;51982;51.042;13.806;2023-04-03T07:29:14;5.57;;;1.27;;
65377;SDS011;51982;51.042;13.806;2023-04-03T07:31:39;3.38;;;1.23;;
65377;SDS011;51982;51.042;13.806;2023-04-03T07:34:06;4.18;;;0.95;;
65377;SDS011;51982;51.042;13.806;2023-04-03T07:36:31;3.70;;;0.95;;
65377;SDS011;51982;51.042;13.806;2023-04-03T07:38:58;3.83;;;1.48;;
65377;SDS011;51982;51.042;13.806;2023-04-03T07:41:23;4.78;;;1.33;;
65377;SDS011;51982;51.042;13.806;2023-04-03T07:43:49;1.13;;;0.70;;
65377;SDS011;51982;51.042;13.806;2023-04-03T07:46:14;1.50;;;0.70;;
65377;SDS011;51982;51.042;13.806;2023-04-03T07:48:40;3.80;;;1.00;;
65377;SDS011;51982;51.042;13.806;2023-04-03T07:51:05;5.43;;;1.30;;
65377;SDS011;51982;51.042;13.806;2023-04-03T07:53:31;2.40;;;1.00;;
65377;SDS011;51982;51.042;13.806;2023-04-03T07:55:57;1.85;;;0.85;;
65377;SDS011;51982;51.042;13.806;2023-04-03T07:58:23;5.45;;;1.50;;
65377;SDS011;51982;51.042;13.806;2023-04-03T08:00:49;4.57;;;1.25;;
65377;SDS011;51982;51.042;13.806;2023-04-03T08:03:14;3.30;;;1.00;;
65377;SDS011;51982;51.042;13.806;2023-04-03T08:05:43;12.82;;;1.30;;
65377;SDS011;51982;51.042;13.806;2023-04-03T08:08:14;4.78;;;1.45;;
65377;SDS011;51982;51.042;13.806;2023-04-03T08:10:41;9.18;;;1.63;;
65377;SDS011;51982;51.042;13.806;2023-04-03T08:13:07;3.08;;;1.20;;
65377;SDS011;51982;51.042;13.806;2023-04-03T08:15:32;2.58;;;1.15;;
65377;SDS011;51982;51.042;13.806;2023-04-03T08:17:58;7.60;;;1.33;;
65377;SDS011;51982;51.042;13.806;2023-04-03T08:20:24;2.78;;;1.23;;
65377;SDS011;51982;51.042;13.806;2023-04-03T08:22:49;3.95;;;1.65;;
65377;SDS011;51982;51.042;13.806;2023-04-03T08:25:15;3.45;;;1.55;;
65377;SDS011;51982;51.042;13.806;2023-04-03T08:27:40;4.68;;;1.50;;
65377;SDS011;51982;51.042;13.806;2023-04-03T08:30:06;3.10;;;1.30;;
65377;SDS011;51982;51.042;13.806;2023-04-03T08:32:33;2.97;;;1.40;;
65377;SDS011;51982;51.042;13.806;2023-04-03T08:34:59;8.82;;;1.48;;
65377;SDS011;51982;51.042;13.806;2023-04-03T08:37:25;5.82;;;1.33;;
65377;SDS011;51982;51.042;13.806;2023-04-03T08:39:51;3.40;;;1.15;;
65377;SDS011;51982;51.042;13.806;2023-04-03T08:42:22;4.28;;;1.38;;
65377;SDS011;51982;51.042;13.806;2023-04-03T08:51:02;4.38;;;1.33;;
65377;SDS011;51982;51.042;13.806;2023-04-03T08:53:32;3.67;;;1.33;;
65377;SDS011;51982;51.042;13.806;2023-04-03T08:56:03;2.45;;;1.00;;
65377;SDS011;51982;51.042;13.806;2023-04-03T08:58:34;4.10;;;1.08;;
65377;SDS011;51982;51.042;13.806;2023-04-03T09:01:17;1.85;;;0.95;;
65377;SDS011;51982;51.042;13.806;2023-04-03T09:03:46;1.85;;;1.10;;
65377;SDS011;51982;51.042;13.806;2023-04-03T09:06:25;2.63;;;1.10;;
65377;SDS011;51982;51.042;13.806;2023-04-03T09:12:12;3.40;;;0.90;;
65377;SDS011;51982;51.042;13.806;2023-04-03T09:20:03;4.57;;;1.20;;
65377;SDS011;51982;51.042;13.806;2023-04-03T09:22:31;4.45;;;1.27;;
65377;SDS011;51982;51.042;13.806;2023-04-03T09:24:59;5.13;;;1.25;;
65377;SDS011;51982;51.042;13.806;2023-04-03T09:27:40;3.42;;;1.15;;
65377;SDS011;51982;51.042;13.806;2023-04-03T09:30:05;3.90;;;1.20;;
65377;SDS011;51982;51.042;13.806;2023-04-03T09:32:33;1.70;;;1.00;;
65377;SDS011;51982;51.042;13.806;2023-04-03T09:35:03;4.30;;;1.25;;
65377;SDS011;51982;51.042;13.806;2023-04-03T09:40:03;2.20;;;0.90;;
65377;SDS011;51982;51.042;13.806;2023-04-03T09:42:30;3.40;;;1.00;;
65377;SDS011;51982;51.042;13.806;2023-04-03T09:44:58;3.40;;;1.20;;
65377;SDS011;51982;51.042;13.806;2023-04-03T09:47:28;2.65;;;1.10;;
65377;SDS011;51982;51.042;13.806;2023-04-03T09:52:45;3.60;;;1.00;;
65377;SDS011;51982;51.042;13.806;2023-04-03T09:55:19;1.63;;;0.88;;
65377;SDS011;51982;51.042;13.806;2023-04-03T09:57:51;2.78;;;0.90;;
65377;SDS011;51982;51.042;13.806;2023-04-03T10:00:23;2.67;;;1.05;;
65377;SDS011;51982;51.042;13.806;2023-04-03T10:02:51;1.25;;;0.47;;
65377;SDS011;51982;51.042;13.806;2023-04-03T10:10:42;2.40;;;1.00;;
65377;SDS011;51982;51.042;13.806;2023-04-03T10:13:11;1.55;;;0.57;;
65377;SDS011;51982;51.042;13.806;2023-04-03T10:15:44;1.55;;;0.70;;
65377;SDS011;51982;51.042;13.806;2023-04-03T10:21:02;2.15;;;0.70;;
65377;SDS011;51982;51.042;13.806;2023-04-03T10:33:45;4.93;;;1.00;;
65377;SDS011;51982;51.042;13.806;2023-04-03T10:36:46;3.90;;;0.90;;
65377;SDS011;51982;51.042;13.806;2023-04-03T10:45:01;2.20;;;0.90;;
65377;SDS011;51982;51.042;13.806;2023-04-03T10:53:25;1.20;;;0.60;;
65377;SDS011;51982;51.042;13.806;2023-04-03T10:58:45;1.92;;;0.65;;
65377;SDS011;51982;51.042;13.806;2023-04-03T11:01:16;5.45;;;0.90;;
65377;SDS011;51982;51.042;13.806;2023-04-03T11:03:46;3.13;;;0.80;;
65377;SDS011;51982;51.042;13.806;2023-04-03T11:06:15;2.05;;;0.75;;
65377;SDS011;51982;51.042;13.806;2023-04-03T11:08:45;1.23;;;0.60;;
65377;SDS011;51982;51.042;13.806;2023-04-03T11:11:17;3.28;;;0.68;;
65377;SDS011;51982;51.042;13.806;2023-04-03T11:13:51;1.95;;;0.63;;
65377;SDS011;51982;51.042;13.806;2023-04-03T11:16:21;2.72;;;0.80;;
65377;SDS011;51982;51.042;13.806;2023-04-03T11:18:52;1.00;;;0.60;;
65377;SDS011;51982;51.042;13.806;2023-04-03T11:21:24;4.05;;;0.70;;
65377;SDS011;51982;51.042;13.806;2023-04-03T11:23:56;1.25;;;0.68;;
65377;SDS011;51982;51.042;13.806;2023-04-03T11:26:24;0.90;;;0.45;;
65377;SDS011;51982;51.042;13.806;2023-04-03T11:28:58;1.27;;;0.80;;
65377;SDS011;51982;51.042;13.806;2023-04-03T11:34:33;1.65;;;0.60;;
65377;SDS011;51982;51.042;13.806;2023-04-03T11:37:10;1.58;;;0.47;;
65377;SDS011;51982;51.042;13.806;2023-04-03T11:39:40;0.98;;;0.38;;
65377;SDS011;51982;51.042;13.806;2023-04-03T11:42:15;3.58;;;0.98;;
65377;SDS011;51982;51.042;13.806;2023-04-03T11:44:42;4.05;;;0.70;;
65377;SDS011;51982;51.042;13.806;2023-04-03T11:47:11;3.65;;;1.23;;
65377;SDS011;51982;51.042;13.806;2023-04-03T11:50:00;1.35;;;0.82;;
65377;SDS011;51982;51.042;13.806;2023-04-03T12:00:46;2.20;;;0.82;;
65377;SDS011;51982;51.042;13.806;2023-04-03T12:03:29;1.17;;;0.65;;
65377;SDS011;51982;51.042;13.806;2023-04-03T12:13:38;3.65;;;1.02;;
65377;SDS011;51982;51.042;13.806;2023-04-03T12:29:19;1.80;;;0.80;;
65377;SDS011;51982;51.042;13.806;2023-04-03T12:40:16;2.92;;;0.77;;
65377;SDS011;51982;51.042;13.806;2023-04-03T12:46:17;3.85;;;0.70;;
65377;SDS011;51982;51.042;13.806;2023-04-03T12:48:27;1.95;;;0.98;;
65377;SDS011;51982;51.042;13.806;2023-04-03T12:50:54;1.15;;;0.60;;
65377;SDS011;51982;51.042;13.806;2023-04-03T12:53:23;2.80;;;0.90;;
65377;SDS011;51982;51.042;13.806;2023-04-03T12:55:55;1.20;;;0.80;;
65377;SDS011;51982;51.042;13.806;2023-04-03T12:58:25;2.78;;;1.15;;
65377;SDS011;51982;51.042;13.806;2023-04-03T13:00:59;2.80;;;1.00;;
65377;SDS011;51982;51.042;13.806;2023-04-03T13:03:28;4.13;;;0.80;;
65377;SDS011;51982;51.042;13.806;2023-04-03T13:06:01;2.65;;;0.95;;
65377;SDS011;51982;51.042;13.806;2023-04-03T13:08:28;2.70;;;1.00;;
65377;SDS011;51982;51.042;13.806;2023-04-03T13:11:02;2.67;;;0.85;;
65377;SDS011;51982;51.042;13.806;2023-04-03T13:13:34;2.67;;;0.88;;
65377;SDS011;51982;51.042;13.806;2023-04-03T13:16:00;5.70;;;0.93;;
65377;SDS011;51982;51.042;13.806;2023-04-03T13:18:34;6.50;;;1.20;;
65377;SDS011;51982;51.042;13.806;2023-04-03T13:21:05;2.30;;;1.20;;
65377;SDS011;51982;51.042;13.806;2023-04-03T13:23:33;2.28;;;0.82;;
65377;SDS011;51982;51.042;13.806;2023-04-03T13:26:01;2.35;;;1.05;;
65377;SDS011;51982;51.042;13.806;2023-04-03T13:28:29;0.85;;;0.70;;
65377;SDS011;51982;51.042;13.806;2023-04-03T13:33:39;1.90;;;0.80;;
65377;SDS011;51982;51.042;13.806;2023-04-03T13:36:18;2.15;;;1.20;;
65377;SDS011;51982;51.042;13.806;2023-04-03T13:38:46;1.52;;;1.00;;
65377;SDS011;51982;51.042;13.806;2023-04-03T13:41:37;2.63;;;0.85;;
65377;SDS011;51982;51.042;13.806;2023-04-03T13:46:49;1.38;;;0.93;;
65377;SDS011;51982;51.042;13.806;2023-04-03T13:52:17;1.27;;;0.70;;
65377;SDS011;51982;51.042;13.806;2023-04-03T13:54:47;2.95;;;1.20;;
65377;SDS011;51982;51.042;13.806;2023-04-03T13:57:19;1.75;;;0.90;;
65377;SDS011;51982;51.042;13.806;2023-04-03T13:59:45;3.22;;;1.10;;
65377;SDS011;51982;51.042;13.806;2023-04-03T14:02:14;1.60;;;0.80;;
65377;SDS011;51982;51.042;13.806;2023-04-03T14:07:13;2.97;;;0.93;;
65377;SDS011;51982;51.042;13.806;2023-04-03T14:09:39;2.45;;;0.82;;
65377;SDS011;51982;51.042;13.806;2023-04-03T14:12:06;1.98;;;0.82;;
65377;SDS011;51982;51.042;13.806;2023-04-03T14:14:52;3.35;;;1.10;;
65377;SDS011;51982;51.042;13.806;2023-04-03T14:17:19;4.35;;;1.45;;
65377;SDS011;51982;51.042;13.806;2023-04-03T14:19:49;3.22;;;0.90;;
65377;SDS011;51982;51.042;13.806;2023-04-03T14:24:42;1.67;;;0.70;;
65377;SDS011;51982;51.042;13.806;2023-04-03T14:27:16;3.20;;;0.75;;
65377;SDS011;51982;51.042;13.806;2023-04-03T14:29:47;2.90;;;1.00;;
65377;SDS011;51982;51.042;13.806;2023-04-03T14:32:14;1.95;;;0.80;;
65377;SDS011;51982;51.042;13.806;2023-04-03T14:34:41;2.40;;;0.90;;
65377;SDS011;51982;51.042;13.806;2023-04-03T14:37:12;1.92;;;0.82;;
65377;SDS011;51982;51.042;13.806;2023-04-03T14:39:39;3.13;;;0.93;;
65377;SDS011;51982;51.042;13.806;2023-04-03T14:42:05;1.65;;;0.80;;
65377;SDS011;51982;51.042;13.806;2023-04-03T14:44:31;1.00;;;0.73;;
65377;SDS011;51982;51.042;13.806;2023-04-03T14:46:56;1.80;;;0.85;;
65377;SDS011;51982;51.042;13.806;2023-04-03T14:49:23;2.85;;;0.85;;
65377;SDS011;51982;51.042;13.806;2023-04-03T14:51:51;2.33;;;0.88;;
65377;SDS011;51982;51.042;13.806;2023-04-03T14:54:18;2.10;;;0.65;;
65377;SDS011;51982;51.042;13.806;2023-04-03T14:56:50;2.63;;;0.75;;
65377;SDS011;51982;51.042;13.806;2023-04-03T14:59:15;4.03;;;1.00;;
65377;SDS011;51982;51.042;13.806;2023-04-03T15:01:42;3.42;;;0.88;;
65377;SDS011;51982;51.042;13.806;2023-04-03T15:04:14;0.98;;;0.50;;
65377;SDS011;51982;51.042;13.806;2023-04-03T15:09:23;0.43;;;0.40;;
65377;SDS011;51982;51.042;13.806;2023-04-03T15:11:50;3.40;;;1.08;;
65377;SDS011;51982;51.042;13.806;2023-04-03T15:14:17;2.35;;;0.93;;
65377;SDS011;51982;51.042;13.806;2023-04-03T15:16:42;0.63;;;0.45;;
65377;SDS011;51982;51.042;13.806;2023-04-03T15:19:08;2.22;;;1.00;;
65377;SDS011;51982;51.042;13.806;2023-04-03T15:21:34;1.48;;;0.75;;
65377;SDS011;51982;51.042;13.806;2023-04-03T15:24:00;2.80;;;1.00;;
65377;SDS011;51982;51.042;13.806;2023-04-03T15:26:25;2.35;;;0.90;;
65377;SDS011;51982;51.042;13.806;2023-04-03T15:28:51;4.30;;;1.15;;
65377;SDS011;51982;51.042;13.806;2023-04-03T15:31:16;4.03;;;1.23;;
65377;SDS011;51982;51.042;13.806;2023-04-03T15:33:41;1.95;;;0.90;;
65377;SDS011;51982;51.042;13.806;2023-04-03T15:36:07;1.27;;;0.75;;
65377;SDS011;51982;51.042;13.806;2023-04-03T15:38:32;2.50;;;1.05;;
65377;SDS011;51982;51.042;13.806;2023-04-03T15:40:58;3.20;;;0.88;;
65377;SDS011;51982;51.042;13.806;2023-04-03T15:43:23;2.17;;;0.70;;
65377;SDS011;51982;51.042;13.806;2023-04-03T15:45:49;1.98;;;0.95;;
65377;SDS011;51982;51.042;13.806;2023-04-03T15:48:15;1.00;;;0.60;;
65377;SDS011;51982;51.042;13.806;2023-04-03T15:50:41;0.60;;;0.57;;
65377;SDS011;51982;51.042;13.806;2023-04-03T15:53:06;0.60;;;0.52;;
65377;SDS011;51982;51.042;13.806;2023-04-03T15:55:33;4.35;;;1.10;;
65377;SDS011;51982;51.042;13.806;2023-04-03T15:57:59;2.67;;;0.90;;
65377;SDS011;51982;51.042;13.806;2023-04-03T16:00:26;2.70;;;0.65;;
65377;SDS011;51982;51.042;13.806;2023-04-03T16:02:52;2.22;;;0.60;;
65377;SDS011;51982;51.042;13.806;2023-04-03T16:05:20;1.95;;;0.70;;
65377;SDS011;51982;51.042;13.806;2023-04-03T16:07:46;0.30;;;0.30;;
65377;SDS011;51982;51.042;13.806;2023-04-03T16:10:12;1.50;;;0.45;;
65377;SDS011;51982;51.042;13.806;2023-04-03T16:12:38;2.05;;;0.70;;
65377;SDS011;51982;51.042;13.806;2023-04-03T16:15:04;1.73;;;0.70;;
65377;SDS011;51982;51.042;13.806;2023-04-03T16:17:31;1.08;;;0.73;;
65377;SDS011;51982;51.042;13.806;2023-04-03T16:19:57;1.40;;;0.80;;
65377;SDS011;51982;51.042;13.806;2023-04-03T16:22:23;1.77;;;0.80;;
65377;SDS011;51982;51.042;13.806;2023-04-03T16:24:50;2.35;;;0.80;;
65377;SDS011;51982;51.042;13.806;2023-04-03T16:27:15;3.33;;;1.30;;
65377;SDS011;51982;51.042;13.806;2023-04-03T16:29:41;1.55;;;0.65;;
65377;SDS011;51982;51.042;13.806;2023-04-03T16:32:07;1.88;;;0.90;;
65377;SDS011;51982;51.042;13.806;2023-04-03T16:34:32;3.05;;;1.05;;
65377;SDS011;51982;51.042;13.806;2023-04-03T16:36:58;1.08;;;0.82;;
65377;SDS011;51982;51.042;13.806;2023-04-03T16:39:23;2.63;;;0.95;;
65377;SDS011;51982;51.042;13.806;2023-04-03T16:41:48;3.17;;;1.00;;
65377;SDS011;51982;51.042;13.806;2023-04-03T16:44:14;1.42;;;0.90;;
65377;SDS011;51982;51.042;13.806;2023-04-03T16:46:39;1.50;;;0.70;;
65377;SDS011;51982;51.042;13.806;2023-04-03T16:49:04;5.23;;;0.60;;
65377;SDS011;51982;51.042;13.806;2023-04-03T16:51:30;0.70;;;0.70;;
65377;SDS011;51982;51.042;13.806;2023-04-03T16:53:56;2.35;;;0.98;;
65377;SDS011;51982;51.042;13.806;2023-04-03T16:56:21;2.72;;;1.20;;
65377;SDS011;51982;51.042;13.806;2023-04-03T16:58:47;1.90;;;0.70;;
65377;SDS011;51982;51.042;13.806;2023-04-03T17:01:13;2.65;;;1.00;;
65377;SDS011;51982;51.042;13.806;2023-04-03T17:03:40;1.98;;;0.60;;
65377;SDS011;51982;51.042;13.806;2023-04-03T17:06:05;1.85;;;0.80;;
65377;SDS011;51982;51.042;13.806;2023-04-03T17:08:31;1.67;;;0.80;;
65377;SDS011;51982;51.042;13.806;2023-04-03T17:10:56;1.58;;;0.93;;
65377;SDS011;51982;51.042;13.806;2023-04-03T17:13:21;3.20;;;0.88;;
65377;SDS011;51982;51.042;13.806;2023-04-03T17:15:46;2.85;;;0.60;;
65377;SDS011;51982;51.042;13.806;2023-04-03T17:18:12;3.40;;;1.00;;
65377;SDS011;51982;51.042;13.806;2023-04-03T17:20:37;2.15;;;1.05;;
65377;SDS011;51982;51.042;13.806;2023-04-03T17:23:03;1.52;;;0.80;;
65377;SDS011;51982;51.042;13.806;2023-04-03T17:25:29;3.00;;;0.90;;
65377;SDS011;51982;51.042;13.806;2023-04-03T17:27:54;3.08;;;0.80;;
65377;SDS011;51982;51.042;13.806;2023-04-03T17:30:20;2.60;;;1.10;;
65377;SDS011;51982;51.042;13.806;2023-04-03T17:32:46;2.72;;;1.05;;
65377;SDS011;51982;51.042;13.806;2023-04-03T17:35:11;1.47;;;0.90;;
65377;SDS011;51982;51.042;13.806;2023-04-03T17:37:36;3.67;;;1.20;;
65377;SDS011;51982;51.042;13.806;2023-04-03T17:40:02;4.95;;;1.30;;
65377;SDS011;51982;51.042;13.806;2023-04-03T17:42:27;5.75;;;1.10;;
65377;SDS011;51982;51.042;13.806;2023-04-03T17:44:55;2.17;;;0.90;;
65377;SDS011;51982;51.042;13.806;2023-04-03T17:47:20;2.72;;;0.90;;
65377;SDS011;51982;51.042;13.806;2023-04-03T17:49:45;4.82;;;1.10;;
65377;SDS011;51982;51.042;13.806;2023-04-03T17:52:10;3.70;;;1.05;;
65377;SDS011;51982;51.042;13.806;2023-04-03T17:54:36;1.90;;;1.23;;
65377;SDS011;51982;51.042;13.806;2023-04-03T17:57:01;2.78;;;0.93;;
65377;SDS011;51982;51.042;13.806;2023-04-03T17:59:28;2.83;;;1.20;;
65377;SDS011;51982;51.042;13.806;2023-04-03T18:01:53;2.30;;;1.25;;
65377;SDS011;51982;51.042;13.806;2023-04-03T18:04:19;1.90;;;1.10;;
65377;SDS011;51982;51.042;13.806;2023-04-03T18:06:45;2.90;;;1.20;;
65377;SDS011;51982;51.042;13.806;2023-04-03T18:09:16;1.95;;;1.02;;
65377;SDS011;51982;51.042;13.806;2023-04-03T18:11:44;3.08;;;1.08;;
65377;SDS011;51982;51.042;13.806;2023-04-03T18:14:12;3.20;;;1.20;;
65377;SDS011;51982;51.042;13.806;2023-04-03T18:16:41;2.28;;;1.15;;
65377;SDS011;51982;51.042;13.806;2023-04-03T18:19:06;3.38;;;1.10;;
65377;SDS011;51982;51.042;13.806;2023-04-03T18:21:33;3.00;;;1.20;;
65377;SDS011;51982;51.042;13.806;2023-04-03T18:23:59;2.03;;;1.13;;
65377;SDS011;51982;51.042;13.806;2023-04-03T18:26:25;4.85;;;1.48;;
65377;SDS011;51982;51.042;13.806;2023-04-03T18:28:53;2.42;;;1.30;;
65377;SDS011;51982;51.042;13.806;2023-04-03T18:31:22;4.13;;;1.50;;
65377;SDS011;51982;51.042;13.806;2023-04-03T18:33:50;2.30;;;1.30;;
65377;SDS011;51982;51.042;13.806;2023-04-03T18:36:18;3.08;;;1.20;;
65377;SDS011;51982;51.042;13.806;2023-04-03T18:38:43;4.68;;;1.60;;
65377;SDS011;51982;51.042;13.806;2023-04-03T18:41:09;5.10;;;1.30;;
65377;SDS011;51982;51.042;13.806;2023-04-03T18:43:34;5.55;;;2.13;;
65377;SDS011;51982;51.042;13.806;2023-04-03T18:46:00;4.78;;;1.60;;
65377;SDS011;51982;51.042;13.806;2023-04-03T18:48:25;2.85;;;1.20;;
65377;SDS011;51982;51.042;13.806;2023-04-03T18:50:51;3.83;;;1.40;;
65377;SDS011;51982;51.042;13.806;2023-04-03T18:53:16;2.75;;;1.33;;
65377;SDS011;51982;51.042;13.806;2023-04-03T18:55:41;2.80;;;1.33;;
65377;SDS011;51982;51.042;13.806;2023-04-03T18:58:07;3.50;;;1.40;;
65377;SDS011;51982;51.042;13.806;2023-04-03T19:00:32;2.63;;;1.40;;
65377;SDS011;51982;51.042;13.806;2023-04-03T19:02:58;2.35;;;1.30;;
65377;SDS011;51982;51.042;13.806;2023-04-03T19:05:23;3.50;;;1.50;;
65377;SDS011;51982;51.042;13.806;2023-04-03T19:07:51;3.17;;;1.48;;
65377;SDS011;51982;51.042;13.806;2023-04-03T19:10:18;3.83;;;1.23;;
65377;SDS011;51982;51.042;13.806;2023-04-03T19:12:44;3.13;;;1.30;;
65377;SDS011;51982;51.042;13.806;2023-04-03T19:15:11;3.15;;;1.40;;
65377;SDS011;51982;51.042;13.806;2023-04-03T19:17:38;3.08;;;1.52;;
65377;SDS011;51982;51.042;13.806;2023-04-03T19:20:04;4.25;;;1.70;;
65377;SDS011;51982;51.042;13.806;2023-04-03T19:22:29;3.60;;;1.65;;
65377;SDS011;51982;51.042;13.806;2023-04-03T19:24:55;3.88;;;1.95;;
65377;SDS011;51982;51.042;13.806;2023-04-03T19:27:20;3.33;;;1.67;;
65377;SDS011;51982;51.042;13.806;2023-04-03T19:29:47;3.60;;;2.20;;
65377;SDS011;51982;51.042;13.806;2023-04-03T19:32:13;4.15;;;1.85;;
65377;SDS011;51982;51.042;13.806;2023-04-03T19:34:39;5.13;;;1.92;;
65377;SDS011;51982;51.042;13.806;2023-04-03T19:37:04;4.15;;;1.67;;
65377;SDS011;51982;51.042;13.806;2023-04-03T19:39:30;6.00;;;1.90;;
65377;SDS011;51982;51.042;13.806;2023-04-03T19:41:57;3.83;;;1.80;;
65377;SDS011;51982;51.042;13.806;2023-04-03T19:44:23;4.68;;;1.85;;
65377;SDS011;51982;51.042;13.806;2023-04-03T19:46:48;2.60;;;1.50;;
65377;SDS011;51982;51.042;13.806;2023-04-03T19:49:13;6.05;;;1.80;;
65377;SDS011;51982;51.042;13.806;2023-04-03T19:51:38;3.35;;;1.67;;
65377;SDS011;51982;51.042;13.806;2023-04-03T19:54:04;2.72;;;1.52;;
65377;SDS011;51982;51.042;13.806;2023-04-03T19:56:30;2.40;;;1.50;;
65377;SDS011;51982;51.042;13.806;2023-04-03T19:58:55;4.60;;;1.55;;
65377;SDS011;51982;51.042;13.806;2023-04-03T20:01:23;4.50;;;1.70;;
65377;SDS011;51982;51.042;13.806;2023-04-03T20:03:50;2.58;;;1.45;;
65377;SDS011;51982;51.042;13.806;2023-04-03T20:06:16;3.92;;;1.88;;
65377;SDS011;51982;51.042;13.806;2023-04-03T20:08:41;2.72;;;1.30;;
65377;SDS011;51982;51.042;13.806;2023-04-03T20:11:07;5.35;;;2.00;;
65377;SDS011;51982;51.042;13.806;2023-04-03T20:13:33;2.58;;;1.70;;
65377;SDS011;51982;51.042;13.806;2023-04-03T20:16:04;3.53;;;1.73;;
65377;SDS011;51982;51.042;13.806;2023-04-03T20:18:33;5.10;;;1.63;;
65377;SDS011;51982;51.042;13.806;2023-04-03T20:20:59;3.60;;;1.60;;
65377;SDS011;51982;51.042;13.806;2023-04-03T20:23:26;2.97;;;1.60;;
65377;SDS011;51982;51.042;13.806;2023-04-03T20:25:52;5.90;;;1.65;;
65377;SDS011;51982;51.042;13.806;2023-04-03T20:28:19;4.07;;;1.50;;
65377;SDS011;51982;51.042;13.806;2023-04-03T20:30:45;2.05;;;1.23;;
65377;SDS011;51982;51.042;13.806;2023-04-03T20:33:13;2.10;;;1.20;;
65377;SDS011;51982;51.042;13.806;2023-04-03T20:35:39;3.85;;;1.30;;
65377;SDS011;51982;51.042;13.806;2023-04-03T20:38:04;8.25;;;1.48;;
65377;SDS011;51982;51.042;13.806;2023-04-03T20:40:31;5.70;;;1.67;;
65377;SDS011;51982;51.042;13.806;2023-04-03T20:42:57;2.97;;;1.55;;
65377;SDS011;51982;51.042;13.806;2023-04-03T20:45:22;5.73;;;1.53;;
65377;SDS011;51982;51.042;13.806;2023-04-03T20:47:48;6.20;;;1.60;;
65377;SDS011;51982;51.042;13.806;2023-04-03T20:50:15;3.47;;;1.60;;
65377;SDS011;51982;51.042;13.806;2023-04-03T20:52:40;4.40;;;1.50;;